• Join FlightAware (Why Join?)
  • Login
  • US Flag 
06:38AM EDT


 

Airport Tracker/Info


-or-


 

Live Flight TrackerFlight Track Log ✈ UAL1206 ✈ 10-May-2013 ✈ KORD - KMCO

Flight Track Log - Related Links

Times and Time Zones

All times are in EDT time to prevent confusion due to time zone crossing. See the UAL1206 flight status page for this flight to view local times or setup timezone preferences in your user account.

Time Position Orientation Groundspeed Altitude Reporting Facility
EDT Latitude Longitude Course Direction KTS MPH feet Rate Location/Type
12:46PM 42.0000 -87.9500 169° South 174 200 2,200  Level Chicago TRACON
12:48PM 41.9167 -88.0333 217° Southwest 281 323 5,000 1,080 Climbing Chicago TRACON
12:49PM 41.5255 -87.6397 156° South  Level Estimated
12:49PM 41.8453 -87.9986 160° South 279 321 5,600  Level Chicago Center
12:50PM 41.4114 -87.5736 180° South  Level Estimated
12:50PM 41.7811 -87.9342 143° Southeast 288 331 8,700  Level Chicago Center
12:51PM 41.3032 -87.5111 169° South  Level Estimated
12:51PM 41.7147 -87.8667 143° Southeast 297 342 12,100  Level Chicago Center
12:52PM 41.6458 -87.7956 142° Southeast 313 360 14,100 2,160 Climbing Chicago Center
12:53PM 41.5464 -87.6933 142° Southeast 375 432 16,600 2,400 Climbing Chicago Center
12:54PM 41.4592 -87.6061 143° Southeast 387 445 19,100 2,220 Climbing Chicago Center
12:55PM 41.3564 -87.5603 161° South 397 457 21,300 2,100 Climbing Chicago Center
12:56PM 41.2472 -87.5417 173° South 395 455 23,500 1,800 Climbing Chicago Center
12:57PM 41.1372 -87.5161 170° South 399 459 25,100 1,740 Climbing Chicago Center
12:58PM 41.0222 -87.4853 169° South 418 481 27,200 2,460 Climbing Chicago Center
12:59PM 40.8936 -87.4514 169° South 392 451 30,200 1,800 Climbing Chicago Center
01:00PM 40.7864 -87.4228 169° South 393 452 31,000 360 Climbing Chicago Center
01:01PM 40.6778 -87.3942 169° South 398 458 31,000  Level Chicago Center
01:02PM 40.5703 -87.3664 169° South 396 456 31,000  Level Chicago Center
01:03PM 40.4619 -87.3358 168° South 399 459 31,000  Level Chicago Center
01:04PM 40.3586 -87.2461 147° Southeast 416 479 31,000  Level Chicago Center
01:05PM 40.2642 -87.1608 145° Southeast 415 478 31,000  Level Chicago Center
01:06PM 40.1747 -87.0683 142° Southeast 413 475 31,000  Level Chicago Center
01:07PM 40.1197 -86.9639 125° Southeast 425 489 31,000  Level Indianapolis Center
01:08PM 40.0367 -86.8114 125° Southeast 429 494 31,000  Level Indianapolis Center
01:09PM 39.9689 -86.6856 125° Southeast 427 491 31,000  Level Indianapolis Center
01:10PM 39.9014 -86.5578 125° Southeast 429 494 31,000  Level Indianapolis Center
01:11PM 39.8331 -86.4308 125° Southeast 429 494 31,000  Level Indianapolis Center
01:12PM 39.7597 -86.2961 125° Southeast 433 498 31,000  Level Indianapolis Center
01:13PM 39.6878 -86.1628 125° Southeast 434 499 31,000  Level Indianapolis Center
01:14PM 39.6186 -86.0364 125° Southeast 432 497 31,000  Level Indianapolis Center
01:15PM 39.5508 -85.9139 126° Southeast 423 487 31,000  Level Indianapolis Center
01:16PM 39.4711 -85.7664 125° Southeast 418 481 31,000  Level Indianapolis Center
01:17PM 39.4019 -85.6428 126° Southeast 424 488 31,000  Level Indianapolis Center
01:18PM 39.3333 -85.5178 125° Southeast 426 490 31,000  Level Indianapolis Center
01:19PM 39.2642 -85.3942 126° Southeast 428 493 31,000  Level Indianapolis Center
01:21PM 39.1942 -85.2700 126° Southeast 429 494 31,000  Level Indianapolis Center
01:22PM 39.1242 -85.1442 126° Southeast 431 496 31,000  Level Indianapolis Center
01:23PM 39.0392 -84.9944 126° Southeast 433 498 31,000  Level Indianapolis Center
01:24PM 38.9683 -84.8692 126° Southeast 438 504 31,000  Level Indianapolis Center
01:25PM 38.8969 -84.7411 126° Southeast 438 504 31,000  Level Indianapolis Center
01:26PM 38.8244 -84.6139 126° Southeast 442 509 31,000  Level Indianapolis Center
01:27PM 38.7492 -84.4847 127° Southeast 444 511 31,000  Level Indianapolis Center
01:28PM 38.6617 -84.3344 127° Southeast 449 517 31,000  Level Indianapolis Center
01:29PM 38.5661 -84.2722 153° Southeast 427 491 31,000  Level Indianapolis Center
01:30PM 38.4367 -84.2128 160° South 422 486 31,000  Level Indianapolis Center
01:31PM 38.3264 -84.1625 160° South 419 482 31,000  Level Indianapolis Center
01:32PM 38.2169 -84.1156 161° South 414 476 31,000  Level Indianapolis Center
01:33PM 38.1081 -84.0650 160° South 414 476 31,000  Level Indianapolis Center
01:34PM 37.9972 -84.0178 161° South 419 482 31,000  Level Indianapolis Center
01:35PM 37.8881 -83.9681 160° South 418 481 31,000  Level Indianapolis Center
01:36PM 37.7600 -83.9108 161° South 419 482 31,000  Level Indianapolis Center
01:37PM 37.6506 -83.8608 160° South 420 483 31,000  Level Indianapolis Center
01:38PM 37.5414 -83.8111 160° South 417 480 31,000  Level Indianapolis Center
01:39PM 37.4300 -83.7800 167° South 414 476 31,000  Level Indianapolis Center
01:40PM 37.3161 -83.7539 170° South 415 478 31,000  Level Indianapolis Center
01:41PM 37.2019 -83.7281 170° South 417 480 31,000  Level Indianapolis Center
01:42PM 37.0686 -83.6975 170° South 418 481 31,000  Level Indianapolis Center
01:43PM 36.9547 -83.6706 169° South 417 480 31,000  Level Indianapolis Center
01:44PM 36.8408 -83.6444 170° South 417 480 31,000  Level Indianapolis Center
01:45PM 36.7275 -83.6178 169° South 416 479 31,000  Level Indianapolis Center
01:46PM 36.6133 -83.5933 170° South 416 479 31,000  Level Indianapolis Center
01:47PM 36.4836 -83.5633 169° South 416 479 31,000  Level Indianapolis Center
01:48PM 36.3700 -83.5372 170° South 415 478 31,000  Level Indianapolis Center
01:49PM 36.2825 -83.5211 172° South 420 483 31,000  Level Atlanta Center
01:50PM 36.1781 -83.4986 170° South 420 483 31,000  Level Atlanta Center
01:51PM 36.0633 -83.4711 169° South 420 483 31,000  Level Atlanta Center
01:52PM 35.9547 -83.4461 169° South 414 476 31,000  Level Atlanta Center
01:53PM 35.8419 -83.4214 170° South 409 471 31,000  Level Atlanta Center
01:54PM 35.7292 -83.3967 170° South 409 471 31,000  Level Atlanta Center
01:55PM 35.6142 -83.3694 169° South 409 471 31,000  Level Atlanta Center
01:56PM 35.5014 -83.3450 170° South 414 476 31,000  Level Atlanta Center
01:57PM 35.3886 -83.3178 169° South 414 476 31,000  Level Atlanta Center
01:58PM 35.2736 -83.2958 171° South 414 476 31,000  Level Atlanta Center
01:59PM 35.1567 -83.2717 170° South 414 476 31,000  Level Atlanta Center
02:00PM 35.0419 -83.2497 171° South 414 476 31,000  Level Atlanta Center
02:01PM 34.9164 -83.2131 167° South 420 483 31,000  Level Atlanta Center
02:02PM 34.7994 -83.1889 170° South 427 491 31,000  Level Atlanta Center
02:03PM 34.6822 -83.1622 169° South 428 493 31,000  Level Atlanta Center
02:04PM 34.5717 -83.1408 171° South 428 493 31,000  Level Atlanta Center
02:05PM 34.4544 -83.1167 170° South 428 493 31,000  Level Atlanta Center
02:06PM 34.3417 -83.0903 169° South 428 493 31,000  Level Atlanta Center
02:07PM 34.2244 -83.0664 170° South 418 481 31,000  Level Atlanta Center
02:08PM 34.1075 -83.0403 170° South 418 481 31,000  Level Atlanta Center
02:09PM 34.0072 -83.0214 171° South 418 481 31,000  Level Atlanta Center
02:10PM 33.8919 -82.9953 169° South 418 481 31,000  Level Atlanta Center
02:11PM 33.7750 -82.9717 170° South 423 487 31,000  Level Atlanta Center
02:12PM 33.6642 -82.9456 169° South 423 487 31,000  Level Atlanta Center
02:13PM 33.5492 -82.9222 170° South 423 487 31,000  Level Atlanta Center
02:14PM 33.4300 -82.8989 171° South 429 494 31,000 -420 Level Atlanta Center
02:15PM 33.3150 -82.8756 170° South 424 488 30,200 -540 Descending Atlanta Center
02:16PM 33.2019 -82.8497 169° South 424 488 30,000 -120 Descending Atlanta Center
02:17PM 33.0869 -82.8264 170° South 424 488 30,000  Level Atlanta Center
02:18PM 32.9719 -82.8058 171° South 424 488 30,000  Level Atlanta Center
02:19PM 32.8569 -82.7803 169° South 424 488 30,000  Level Atlanta Center
02:23PM 32.4231 -82.6908 170° South 409 471 30,000  Level Jacksonville Center
02:24PM 32.3208 -82.6689 170° South 414 476 30,000  Level Jacksonville Center
02:25PM 32.2081 -82.6444 170° South 420 483 30,000  Level Jacksonville Center
02:26PM 32.0931 -82.6203 170° South 420 483 30,000  Level Jacksonville Center
02:27PM 31.9783 -82.5961 170° South 420 483 30,000  Level Jacksonville Center
02:28PM 31.8656 -82.5747 171° South 420 483 30,000  Level Jacksonville Center
02:29PM 31.7486 -82.5531 171° South 425 489 30,000  Level Jacksonville Center
02:30PM 31.6378 -82.5267 169° South 425 489 30,000  Level Jacksonville Center
02:31PM 31.5228 -82.5050 171° South 425 489 30,000  Level Jacksonville Center
02:32PM 31.4081 -82.4811 170° South 425 489 30,000  Level Jacksonville Center
02:33PM 31.2783 -82.4622 173° South 425 489 30,000 -60 Level Jacksonville Center
02:34PM 31.1656 -82.4361 169° South 425 489 29,900  Descending Jacksonville Center
02:35PM 31.0486 -82.4125 170° South 425 489 30,000  Climbing Jacksonville Center
02:36PM 30.9358 -82.3889 170° South 425 489 30,000  Level Jacksonville Center
02:37PM 30.8208 -82.3653 170° South 425 489 30,000 -60 Level Jacksonville Center
02:38PM 30.7058 -82.3417 170° South 425 489 29,900 -60 Descending Jacksonville Center
02:39PM 30.5908 -82.3183 170° South 425 489 29,900  Level Jacksonville Center
02:40PM 30.4864 -82.2925 168° South 425 489 29,900  Level Jacksonville Center
02:41PM 30.3714 -82.2689 170° South 425 489 29,900 -540 Level Jacksonville Center
02:42PM 30.2544 -82.2458 170° South 431 496 28,900 -1,020 Descending Jacksonville Center
02:43PM 30.1394 -82.2225 170° South 426 490 27,900 -1,020 Descending Jacksonville Center
02:44PM 30.0286 -82.2017 171° South 426 490 26,900 -1,020 Descending Jacksonville Center
02:45PM 29.9139 -82.1786 170° South 426 490 25,900 -1,020 Descending Jacksonville Center
02:46PM 29.8028 -82.1386 163° South 421 484 24,900 -1,020 Descending Jacksonville Center
02:47PM 29.6942 -82.0917 159° South 414 476 23,900 -1,020 Descending Jacksonville Center
02:48PM 29.5872 -82.0494 161° South 414 476 22,900 -1,500 Descending Jacksonville Center
02:49PM 29.4869 -82.0147 163° South 400 460 21,000 -1,920 Descending Jacksonville Center
02:50PM 29.3864 -81.9750 161° South 392 451 19,100 -1,800 Descending Jacksonville Center
02:51PM 29.2881 -81.9403 163° South 379 436 17,400 -1,860 Descending Jacksonville Center
02:52PM 29.1939 -81.8983 159° South 374 430 15,400 -1,980 Descending Jacksonville Center
02:53PM 29.0933 -81.8589 161° South 362 417 13,500 -1,740 Descending Jacksonville Center
02:54PM 29.0094 -81.8053 151° Southeast 357 411 12,000 -900 Descending Jacksonville Center
02:55PM 28.9378 -81.7467 144° Southeast 335 386 11,700 -720 Descending Jacksonville Center
02:56PM 28.8850 -81.6761 130° Southeast 313 360 10,600 -1,260 Descending Jacksonville Center
02:57PM 28.8333 -81.6000 128° Southeast 290 334 9,300 -900 Descending Orlando TRACON
02:58PM 28.8000 -81.5333 120° Southeast 247 284 8,900 -720 Descending Orlando TRACON
02:59PM 28.7500 -81.4833 139° Southeast 245 282 7,900 -1,020 Descending Orlando TRACON
03:00PM 28.7000 -81.4167 131° Southeast 237 273 6,800 -1,200 Descending Orlando TRACON
03:01PM 28.6667 -81.3667 127° Southeast 223 257 5,700 -1,380 Descending Orlando TRACON